sensor_id;sensor_type;location;lat;lon;timestamp;pressure;altitude;pressure_sealevel;temperature;humidity
62634;BME280;48704;50.534;6.442;2023-09-30T00:01:49;96446.38;;;10.71;100.00
62634;BME280;48704;50.534;6.442;2023-09-30T00:04:17;96447.03;;;10.76;100.00
62634;BME280;48704;50.534;6.442;2023-09-30T00:06:42;96439.47;;;10.54;100.00
62634;BME280;48704;50.534;6.442;2023-09-30T00:09:08;96452.91;;;10.47;100.00
62634;BME280;48704;50.534;6.442;2023-09-30T00:11:33;96451.59;;;10.60;100.00
62634;BME280;48704;50.534;6.442;2023-09-30T00:13:58;96453.16;;;10.61;100.00
62634;BME280;48704;50.534;6.442;2023-09-30T00:16:24;96460.69;;;10.52;100.00
62634;BME280;48704;50.534;6.442;2023-09-30T00:18:49;96460.00;;;10.69;100.00
62634;BME280;48704;50.534;6.442;2023-09-30T00:21:14;96472.78;;;10.89;100.00
62634;BME280;48704;50.534;6.442;2023-09-30T00:23:40;96469.69;;;11.36;100.00
62634;BME280;48704;50.534;6.442;2023-09-30T00:26:05;96463.00;;;11.33;100.00
62634;BME280;48704;50.534;6.442;2023-09-30T00:28:31;96455.75;;;10.96;100.00
62634;BME280;48704;50.534;6.442;2023-09-30T00:30:56;96461.25;;;10.78;100.00
62634;BME280;48704;50.534;6.442;2023-09-30T00:33:22;96459.25;;;10.47;100.00
62634;BME280;48704;50.534;6.442;2023-09-30T00:35:48;96454.06;;;10.58;100.00
62634;BME280;48704;50.534;6.442;2023-09-30T00:38:13;96450.03;;;10.59;100.00
62634;BME280;48704;50.534;6.442;2023-09-30T00:40:39;96450.94;;;10.56;100.00
62634;BME280;48704;50.534;6.442;2023-09-30T00:43:04;96444.91;;;10.27;100.00
62634;BME280;48704;50.534;6.442;2023-09-30T00:45:30;96457.66;;;10.37;100.00
62634;BME280;48704;50.534;6.442;2023-09-30T00:47:56;96464.09;;;10.25;100.00
62634;BME280;48704;50.534;6.442;2023-09-30T00:50:21;96466.97;;;10.43;100.00
62634;BME280;48704;50.534;6.442;2023-09-30T00:52:48;96466.03;;;10.37;100.00
62634;BME280;48704;50.534;6.442;2023-09-30T00:55:14;96457.53;;;10.71;100.00
62634;BME280;48704;50.534;6.442;2023-09-30T00:57:40;96450.69;;;10.63;100.00
62634;BME280;48704;50.534;6.442;2023-09-30T01:00:07;96452.44;;;10.79;100.00
62634;BME280;48704;50.534;6.442;2023-09-30T01:02:37;96449.06;;;10.53;100.00
62634;BME280;48704;50.534;6.442;2023-09-30T01:05:03;96448.88;;;10.48;100.00
62634;BME280;48704;50.534;6.442;2023-09-30T01:07:30;96457.44;;;10.53;100.00
62634;BME280;48704;50.534;6.442;2023-09-30T01:09:55;96457.22;;;10.79;100.00
62634;BME280;48704;50.534;6.442;2023-09-30T01:12:20;96458.19;;;10.76;100.00
62634;BME280;48704;50.534;6.442;2023-09-30T01:14:46;96452.09;;;10.68;100.00
62634;BME280;48704;50.534;6.442;2023-09-30T01:17:11;96449.50;;;10.74;100.00
62634;BME280;48704;50.534;6.442;2023-09-30T01:19:40;96460.84;;;10.26;100.00
62634;BME280;48704;50.534;6.442;2023-09-30T01:22:05;96465.16;;;10.49;100.00
62634;BME280;48704;50.534;6.442;2023-09-30T01:24:41;96456.16;;;10.45;100.00
62634;BME280;48704;50.534;6.442;2023-09-30T01:27:07;96468.91;;;10.12;100.00
62634;BME280;48704;50.534;6.442;2023-09-30T01:29:32;96480.25;;;9.95;100.00
62634;BME280;48704;50.534;6.442;2023-09-30T01:31:58;96483.09;;;10.04;100.00
62634;BME280;48704;50.534;6.442;2023-09-30T01:34:23;96487.66;;;10.33;100.00
62634;BME280;48704;50.534;6.442;2023-09-30T01:36:49;96498.81;;;10.33;100.00
62634;BME280;48704;50.534;6.442;2023-09-30T01:39:14;96492.53;;;10.73;100.00
62634;BME280;48704;50.534;6.442;2023-09-30T01:41:40;96486.53;;;10.52;100.00
62634;BME280;48704;50.534;6.442;2023-09-30T01:44:06;96487.09;;;10.38;100.00
62634;BME280;48704;50.534;6.442;2023-09-30T01:46:32;96490.09;;;10.53;100.00
62634;BME280;48704;50.534;6.442;2023-09-30T01:48:57;96500.59;;;10.49;100.00
62634;BME280;48704;50.534;6.442;2023-09-30T01:51:22;96495.81;;;10.49;100.00
62634;BME280;48704;50.534;6.442;2023-09-30T01:53:49;96499.69;;;10.52;100.00
62634;BME280;48704;50.534;6.442;2023-09-30T01:56:14;96489.97;;;10.56;100.00
62634;BME280;48704;50.534;6.442;2023-09-30T01:58:39;96484.19;;;10.73;100.00
62634;BME280;48704;50.534;6.442;2023-09-30T02:01:05;96477.97;;;10.78;100.00
62634;BME280;48704;50.534;6.442;2023-09-30T02:03:30;96469.75;;;10.43;100.00
62634;BME280;48704;50.534;6.442;2023-09-30T02:05:57;96458.06;;;10.57;100.00
62634;BME280;48704;50.534;6.442;2023-09-30T02:08:23;96452.13;;;10.46;100.00
62634;BME280;48704;50.534;6.442;2023-09-30T02:10:48;96456.69;;;10.31;100.00
62634;BME280;48704;50.534;6.442;2023-09-30T02:13:13;96471.59;;;10.37;100.00
62634;BME280;48704;50.534;6.442;2023-09-30T02:15:41;96469.47;;;10.19;100.00
62634;BME280;48704;50.534;6.442;2023-09-30T02:18:07;96476.78;;;10.26;100.00
62634;BME280;48704;50.534;6.442;2023-09-30T02:20:32;96469.44;;;10.41;100.00
62634;BME280;48704;50.534;6.442;2023-09-30T02:22:58;96464.81;;;10.47;100.00
62634;BME280;48704;50.534;6.442;2023-09-30T02:25:24;96436.31;;;10.43;100.00
62634;BME280;48704;50.534;6.442;2023-09-30T02:27:50;96451.44;;;10.33;100.00
62634;BME280;48704;50.534;6.442;2023-09-30T02:30:16;96464.28;;;10.30;100.00
62634;BME280;48704;50.534;6.442;2023-09-30T02:32:42;96475.28;;;10.34;100.00
62634;BME280;48704;50.534;6.442;2023-09-30T02:35:11;96480.19;;;9.86;100.00
62634;BME280;48704;50.534;6.442;2023-09-30T02:37:36;96485.28;;;10.10;100.00
62634;BME280;48704;50.534;6.442;2023-09-30T02:40:03;96493.25;;;10.33;100.00
62634;BME280;48704;50.534;6.442;2023-09-30T02:42:30;96489.16;;;10.25;100.00
62634;BME280;48704;50.534;6.442;2023-09-30T02:44:56;96464.13;;;10.12;100.00
62634;BME280;48704;50.534;6.442;2023-09-30T02:47:21;96462.50;;;10.46;100.00
62634;BME280;48704;50.534;6.442;2023-09-30T02:49:46;96478.56;;;10.42;100.00
62634;BME280;48704;50.534;6.442;2023-09-30T02:52:11;96484.31;;;10.38;100.00
62634;BME280;48704;50.534;6.442;2023-09-30T02:54:38;96483.75;;;10.52;100.00
62634;BME280;48704;50.534;6.442;2023-09-30T02:57:03;96472.34;;;10.59;100.00
62634;BME280;48704;50.534;6.442;2023-09-30T02:59:29;96466.06;;;10.46;100.00
62634;BME280;48704;50.534;6.442;2023-09-30T03:01:54;96484.91;;;10.42;100.00
62634;BME280;48704;50.534;6.442;2023-09-30T03:04:21;96489.34;;;10.30;100.00
62634;BME280;48704;50.534;6.442;2023-09-30T03:06:51;96488.94;;;10.41;100.00
62634;BME280;48704;50.534;6.442;2023-09-30T03:09:16;96484.31;;;10.38;100.00
62634;BME280;48704;50.534;6.442;2023-09-30T03:11:41;96479.69;;;10.00;100.00
62634;BME280;48704;50.534;6.442;2023-09-30T03:14:11;96474.81;;;10.14;100.00
62634;BME280;48704;50.534;6.442;2023-09-30T03:16:39;96484.94;;;10.20;100.00
62634;BME280;48704;50.534;6.442;2023-09-30T03:19:05;96481.44;;;10.29;100.00
62634;BME280;48704;50.534;6.442;2023-09-30T03:21:34;96477.25;;;10.12;100.00
62634;BME280;48704;50.534;6.442;2023-09-30T03:24:02;96482.34;;;10.26;100.00
62634;BME280;48704;50.534;6.442;2023-09-30T03:26:28;96489.38;;;10.18;100.00
62634;BME280;48704;50.534;6.442;2023-09-30T03:28:55;96488.66;;;10.04;100.00
62634;BME280;48704;50.534;6.442;2023-09-30T03:31:20;96485.38;;;10.19;100.00
62634;BME280;48704;50.534;6.442;2023-09-30T03:33:46;96501.16;;;10.34;100.00
62634;BME280;48704;50.534;6.442;2023-09-30T03:36:12;96486.19;;;10.06;100.00
62634;BME280;48704;50.534;6.442;2023-09-30T03:38:38;96485.81;;;10.17;100.00
62634;BME280;48704;50.534;6.442;2023-09-30T03:41:04;96484.63;;;10.05;100.00
62634;BME280;48704;50.534;6.442;2023-09-30T03:43:33;96489.97;;;9.91;100.00
62634;BME280;48704;50.534;6.442;2023-09-30T03:46:00;96488.59;;;9.95;100.00
62634;BME280;48704;50.534;6.442;2023-09-30T03:48:26;96490.97;;;9.84;100.00
62634;BME280;48704;50.534;6.442;2023-09-30T03:50:51;96482.44;;;9.79;100.00
62634;BME280;48704;50.534;6.442;2023-09-30T03:53:17;96481.56;;;9.69;100.00
62634;BME280;48704;50.534;6.442;2023-09-30T03:55:43;96487.72;;;9.64;100.00
62634;BME280;48704;50.534;6.442;2023-09-30T03:58:08;96486.41;;;9.56;100.00
62634;BME280;48704;50.534;6.442;2023-09-30T04:00:33;96481.06;;;9.49;100.00
62634;BME280;48704;50.534;6.442;2023-09-30T04:03:00;96480.97;;;9.52;100.00
62634;BME280;48704;50.534;6.442;2023-09-30T04:05:26;96485.63;;;9.55;100.00
62634;BME280;48704;50.534;6.442;2023-09-30T04:07:57;96482.88;;;9.43;100.00
62634;BME280;48704;50.534;6.442;2023-09-30T04:10:23;96482.44;;;9.31;100.00
62634;BME280;48704;50.534;6.442;2023-09-30T04:12:49;96476.47;;;9.20;100.00
62634;BME280;48704;50.534;6.442;2023-09-30T04:15:14;96482.94;;;8.66;100.00
62634;BME280;48704;50.534;6.442;2023-09-30T04:17:40;96490.72;;;8.97;100.00
62634;BME280;48704;50.534;6.442;2023-09-30T04:20:06;96476.47;;;8.95;100.00
62634;BME280;48704;50.534;6.442;2023-09-30T04:22:35;96474.59;;;9.17;100.00
62634;BME280;48704;50.534;6.442;2023-09-30T04:25:01;96464.75;;;9.38;100.00
62634;BME280;48704;50.534;6.442;2023-09-30T04:27:26;96471.81;;;9.17;100.00
62634;BME280;48704;50.534;6.442;2023-09-30T04:29:52;96468.25;;;9.17;100.00
62634;BME280;48704;50.534;6.442;2023-09-30T04:32:18;96459.91;;;9.17;100.00
62634;BME280;48704;50.534;6.442;2023-09-30T04:34:44;96465.59;;;8.88;100.00
62634;BME280;48704;50.534;6.442;2023-09-30T04:37:12;96468.91;;;9.08;100.00
62634;BME280;48704;50.534;6.442;2023-09-30T04:39:38;96463.25;;;9.12;100.00
62634;BME280;48704;50.534;6.442;2023-09-30T04:42:04;96466.72;;;8.78;100.00
62634;BME280;48704;50.534;6.442;2023-09-30T04:44:30;96462.91;;;8.46;100.00
62634;BME280;48704;50.534;6.442;2023-09-30T04:46:55;96462.72;;;8.53;100.00
62634;BME280;48704;50.534;6.442;2023-09-30T04:49:21;96473.50;;;8.51;100.00
62634;BME280;48704;50.534;6.442;2023-09-30T04:51:48;96492.94;;;8.51;100.00
62634;BME280;48704;50.534;6.442;2023-09-30T04:54:14;96492.47;;;8.65;100.00
62634;BME280;48704;50.534;6.442;2023-09-30T04:56:39;96497.81;;;8.73;100.00
62634;BME280;48704;50.534;6.442;2023-09-30T04:59:05;96482.03;;;8.69;100.00
62634;BME280;48704;50.534;6.442;2023-09-30T05:01:30;96478.25;;;8.63;100.00
62634;BME280;48704;50.534;6.442;2023-09-30T05:03:55;96477.25;;;8.57;100.00
62634;BME280;48704;50.534;6.442;2023-09-30T05:06:21;96478.59;;;8.65;100.00
62634;BME280;48704;50.534;6.442;2023-09-30T05:08:46;96493.84;;;8.74;100.00
62634;BME280;48704;50.534;6.442;2023-09-30T05:11:13;96492.16;;;8.76;100.00
62634;BME280;48704;50.534;6.442;2023-09-30T05:13:38;96486.16;;;8.78;100.00
62634;BME280;48704;50.534;6.442;2023-09-30T05:16:03;96495.59;;;8.67;100.00
62634;BME280;48704;50.534;6.442;2023-09-30T05:18:29;96495.59;;;8.67;100.00
62634;BME280;48704;50.534;6.442;2023-09-30T05:20:55;96487.13;;;8.58;100.00
62634;BME280;48704;50.534;6.442;2023-09-30T05:23:21;96491.72;;;8.52;100.00
62634;BME280;48704;50.534;6.442;2023-09-30T05:25:46;96501.41;;;8.31;100.00
62634;BME280;48704;50.534;6.442;2023-09-30T05:28:12;96493.38;;;8.62;100.00
62634;BME280;48704;50.534;6.442;2023-09-30T05:30:41;96495.06;;;8.73;100.00
62634;BME280;48704;50.534;6.442;2023-09-30T05:33:06;96504.16;;;8.60;100.00
62634;BME280;48704;50.534;6.442;2023-09-30T05:35:32;96498.25;;;8.58;100.00
62634;BME280;48704;50.534;6.442;2023-09-30T05:37:57;96497.81;;;8.47;100.00
62634;BME280;48704;50.534;6.442;2023-09-30T05:40:23;96496.69;;;8.57;100.00
62634;BME280;48704;50.534;6.442;2023-09-30T05:42:52;96512.03;;;8.49;100.00
62634;BME280;48704;50.534;6.442;2023-09-30T05:45:17;96513.50;;;8.54;100.00
62634;BME280;48704;50.534;6.442;2023-09-30T05:47:42;96523.59;;;8.60;100.00
62634;BME280;48704;50.534;6.442;2023-09-30T05:50:09;96523.50;;;8.64;100.00
62634;BME280;48704;50.534;6.442;2023-09-30T05:52:40;96511.03;;;8.56;100.00
62634;BME280;48704;50.534;6.442;2023-09-30T05:55:06;96502.94;;;8.49;100.00
62634;BME280;48704;50.534;6.442;2023-09-30T05:57:32;96506.38;;;8.53;100.00
62634;BME280;48704;50.534;6.442;2023-09-30T05:59:57;96507.25;;;8.50;100.00
62634;BME280;48704;50.534;6.442;2023-09-30T06:02:23;96513.34;;;8.57;100.00
62634;BME280;48704;50.534;6.442;2023-09-30T06:04:48;96521.34;;;8.55;100.00
62634;BME280;48704;50.534;6.442;2023-09-30T06:07:16;96523.81;;;8.53;100.00
62634;BME280;48704;50.534;6.442;2023-09-30T06:09:41;96521.34;;;8.55;100.00
62634;BME280;48704;50.534;6.442;2023-09-30T06:12:06;96526.25;;;8.51;100.00
62634;BME280;48704;50.534;6.442;2023-09-30T06:14:32;96535.44;;;8.35;100.00
62634;BME280;48704;50.534;6.442;2023-09-30T06:16:58;96533.78;;;8.38;100.00
62634;BME280;48704;50.534;6.442;2023-09-30T06:19:24;96540.88;;;8.39;100.00
62634;BME280;48704;50.534;6.442;2023-09-30T06:21:51;96530.16;;;8.54;100.00
62634;BME280;48704;50.534;6.442;2023-09-30T06:24:16;96507.38;;;8.46;100.00
62634;BME280;48704;50.534;6.442;2023-09-30T06:26:45;96491.88;;;8.32;100.00
62634;BME280;48704;50.534;6.442;2023-09-30T06:29:10;96498.72;;;8.28;100.00
62634;BME280;48704;50.534;6.442;2023-09-30T06:31:37;96512.34;;;8.38;100.00
62634;BME280;48704;50.534;6.442;2023-09-30T06:34:02;96516.25;;;8.41;100.00
62634;BME280;48704;50.534;6.442;2023-09-30T06:36:29;96514.13;;;8.58;100.00
62634;BME280;48704;50.534;6.442;2023-09-30T06:38:54;96520.16;;;8.69;100.00
62634;BME280;48704;50.534;6.442;2023-09-30T06:41:20;96538.66;;;8.34;100.00
62634;BME280;48704;50.534;6.442;2023-09-30T06:43:45;96544.16;;;8.63;100.00
62634;BME280;48704;50.534;6.442;2023-09-30T06:46:12;96540.25;;;8.60;100.00
62634;BME280;48704;50.534;6.442;2023-09-30T06:48:39;96546.84;;;8.79;100.00
62634;BME280;48704;50.534;6.442;2023-09-30T06:51:05;96553.84;;;8.71;100.00
62634;BME280;48704;50.534;6.442;2023-09-30T06:53:31;96548.75;;;8.95;100.00
62634;BME280;48704;50.534;6.442;2023-09-30T06:55:56;96537.63;;;8.95;100.00
62634;BME280;48704;50.534;6.442;2023-09-30T06:58:22;96525.50;;;9.01;100.00
62634;BME280;48704;50.534;6.442;2023-09-30T07:00:51;96521.84;;;8.92;100.00
62634;BME280;48704;50.534;6.442;2023-09-30T07:03:17;96538.97;;;9.03;100.00
62634;BME280;48704;50.534;6.442;2023-09-30T07:05:44;96538.94;;;9.28;100.00
62634;BME280;48704;50.534;6.442;2023-09-30T07:08:10;96541.63;;;9.45;100.00
62634;BME280;48704;50.534;6.442;2023-09-30T07:10:35;96550.06;;;9.54;100.00
62634;BME280;48704;50.534;6.442;2023-09-30T07:13:04;96556.63;;;9.60;100.00
62634;BME280;48704;50.534;6.442;2023-09-30T07:15:30;96559.69;;;9.75;100.00
62634;BME280;48704;50.534;6.442;2023-09-30T07:17:55;96546.66;;;9.84;100.00
62634;BME280;48704;50.534;6.442;2023-09-30T07:20:21;96549.75;;;9.86;100.00
62634;BME280;48704;50.534;6.442;2023-09-30T07:22:48;96548.66;;;9.84;100.00
62634;BME280;48704;50.534;6.442;2023-09-30T07:25:13;96561.22;;;9.88;100.00
62634;BME280;48704;50.534;6.442;2023-09-30T07:27:45;96572.47;;;9.97;100.00
62634;BME280;48704;50.534;6.442;2023-09-30T07:30:12;96571.28;;;10.07;100.00
62634;BME280;48704;50.534;6.442;2023-09-30T07:32:38;96569.03;;;10.28;100.00
62634;BME280;48704;50.534;6.442;2023-09-30T07:35:03;96570.06;;;10.43;100.00
62634;BME280;48704;50.534;6.442;2023-09-30T07:37:29;96568.13;;;10.31;100.00
62634;BME280;48704;50.534;6.442;2023-09-30T07:39:54;96577.59;;;10.55;100.00
62634;BME280;48704;50.534;6.442;2023-09-30T07:42:19;96594.06;;;10.62;100.00
62634;BME280;48704;50.534;6.442;2023-09-30T07:44:45;96592.00;;;10.76;100.00
62634;BME280;48704;50.534;6.442;2023-09-30T07:47:10;96594.59;;;10.70;100.00
62634;BME280;48704;50.534;6.442;2023-09-30T07:49:35;96593.25;;;10.84;100.00
62634;BME280;48704;50.534;6.442;2023-09-30T07:52:01;96597.41;;;11.01;100.00
62634;BME280;48704;50.534;6.442;2023-09-30T07:54:26;96599.34;;;11.13;100.00
62634;BME280;48704;50.534;6.442;2023-09-30T07:56:51;96595.34;;;11.23;100.00
62634;BME280;48704;50.534;6.442;2023-09-30T07:59:17;96598.69;;;11.40;100.00
62634;BME280;48704;50.534;6.442;2023-09-30T08:01:43;96603.19;;;11.47;100.00
62634;BME280;48704;50.534;6.442;2023-09-30T08:04:08;96593.00;;;11.62;100.00
62634;BME280;48704;50.534;6.442;2023-09-30T08:06:33;96598.38;;;11.78;100.00
62634;BME280;48704;50.534;6.442;2023-09-30T08:08:58;96604.63;;;12.00;100.00
62634;BME280;48704;50.534;6.442;2023-09-30T08:11:24;96599.38;;;12.12;100.00
62634;BME280;48704;50.534;6.442;2023-09-30T08:13:55;96597.81;;;12.29;100.00
62634;BME280;48704;50.534;6.442;2023-09-30T08:16:20;96592.22;;;12.38;100.00
62634;BME280;48704;50.534;6.442;2023-09-30T08:18:46;96591.94;;;12.54;100.00
62634;BME280;48704;50.534;6.442;2023-09-30T08:21:11;96604.19;;;12.66;100.00
62634;BME280;48704;50.534;6.442;2023-09-30T08:23:37;96605.25;;;12.78;100.00
62634;BME280;48704;50.534;6.442;2023-09-30T08:26:04;96610.22;;;12.83;100.00
62634;BME280;48704;50.534;6.442;2023-09-30T08:28:30;96602.75;;;12.98;100.00
62634;BME280;48704;50.534;6.442;2023-09-30T08:31:05;96603.66;;;13.04;100.00
62634;BME280;48704;50.534;6.442;2023-09-30T08:33:30;96614.53;;;13.20;100.00
62634;BME280;48704;50.534;6.442;2023-09-30T08:36:01;96617.94;;;13.33;100.00
62634;BME280;48704;50.534;6.442;2023-09-30T08:38:26;96618.16;;;13.54;100.00
62634;BME280;48704;50.534;6.442;2023-09-30T08:40:52;96616.25;;;13.69;100.00
62634;BME280;48704;50.534;6.442;2023-09-30T08:43:22;96619.69;;;13.64;100.00
62634;BME280;48704;50.534;6.442;2023-09-30T08:45:53;96609.78;;;13.78;100.00
62634;BME280;48704;50.534;6.442;2023-09-30T08:48:20;96602.94;;;13.79;100.00
62634;BME280;48704;50.534;6.442;2023-09-30T08:50:48;96604.44;;;13.65;100.00
62634;BME280;48704;50.534;6.442;2023-09-30T08:53:16;96612.34;;;13.99;100.00
62634;BME280;48704;50.534;6.442;2023-09-30T08:55:43;96615.03;;;14.18;100.00
62634;BME280;48704;50.534;6.442;2023-09-30T08:58:11;96603.28;;;14.04;100.00
62634;BME280;48704;50.534;6.442;2023-09-30T09:00:38;96607.44;;;14.33;100.00
62634;BME280;48704;50.534;6.442;2023-09-30T09:03:04;96595.53;;;14.47;100.00
62634;BME280;48704;50.534;6.442;2023-09-30T09:05:30;96594.94;;;14.43;100.00
62634;BME280;48704;50.534;6.442;2023-09-30T09:07:55;96599.66;;;14.76;100.00
62634;BME280;48704;50.534;6.442;2023-09-30T09:10:20;96590.50;;;14.51;100.00
62634;BME280;48704;50.534;6.442;2023-09-30T09:12:55;96582.81;;;14.76;100.00
62634;BME280;48704;50.534;6.442;2023-09-30T09:15:26;96590.38;;;15.28;100.00
62634;BME280;48704;50.534;6.442;2023-09-30T09:17:52;96589.41;;;15.31;100.00
62634;BME280;48704;50.534;6.442;2023-09-30T09:20:22;96587.47;;;15.52;100.00
62634;BME280;48704;50.534;6.442;2023-09-30T09:22:50;96597.13;;;15.66;98.51
62634;BME280;48704;50.534;6.442;2023-09-30T09:25:21;96595.47;;;15.74;98.08
62634;BME280;48704;50.534;6.442;2023-09-30T09:27:48;96610.13;;;15.49;95.08
62634;BME280;48704;50.534;6.442;2023-09-30T09:30:22;96597.44;;;15.68;93.55
62634;BME280;48704;50.534;6.442;2023-09-30T09:33:04;96594.50;;;16.12;96.21
62634;BME280;48704;50.534;6.442;2023-09-30T09:35:31;96595.69;;;16.05;98.06
62634;BME280;48704;50.534;6.442;2023-09-30T09:37:58;96610.75;;;16.43;90.35
62634;BME280;48704;50.534;6.442;2023-09-30T09:40:26;96603.63;;;16.88;88.96
62634;BME280;48704;50.534;6.442;2023-09-30T09:42:52;96600.09;;;17.19;92.13
62634;BME280;48704;50.534;6.442;2023-09-30T09:45:25;96597.78;;;16.92;86.61
62634;BME280;48704;50.534;6.442;2023-09-30T09:47:52;96597.22;;;16.88;94.24
62634;BME280;48704;50.534;6.442;2023-09-30T09:50:22;96594.44;;;17.71;86.24
62634;BME280;48704;50.534;6.442;2023-09-30T09:52:49;96604.13;;;18.01;82.26
62634;BME280;48704;50.534;6.442;2023-09-30T09:55:16;96600.38;;;18.16;85.24
62634;BME280;48704;50.534;6.442;2023-09-30T09:57:43;96601.13;;;17.74;82.70
62634;BME280;48704;50.534;6.442;2023-09-30T10:00:11;96601.00;;;18.42;85.36
62634;BME280;48704;50.534;6.442;2023-09-30T10:02:42;96599.50;;;18.47;84.61
62634;BME280;48704;50.534;6.442;2023-09-30T10:05:08;96604.50;;;18.74;77.25
62634;BME280;48704;50.534;6.442;2023-09-30T10:07:38;96597.84;;;17.86;80.97
62634;BME280;48704;50.534;6.442;2023-09-30T10:10:12;96597.06;;;18.77;74.98
62634;BME280;48704;50.534;6.442;2023-09-30T10:12:39;96601.91;;;18.70;75.69
62634;BME280;48704;50.534;6.442;2023-09-30T10:20:31;96619.13;;;18.24;75.83
62634;BME280;48704;50.534;6.442;2023-09-30T10:25:48;96616.69;;;15.75;86.17
62634;BME280;48704;50.534;6.442;2023-09-30T10:28:44;96622.22;;;15.69;87.44
62634;BME280;48704;50.534;6.442;2023-09-30T10:31:18;96614.50;;;15.20;92.89
62634;BME280;48704;50.534;6.442;2023-09-30T10:36:40;96622.31;;;14.87;98.43
62634;BME280;48704;50.534;6.442;2023-09-30T10:39:11;96621.06;;;15.47;98.39
62634;BME280;48704;50.534;6.442;2023-09-30T10:46:47;96615.91;;;18.00;80.56
62634;BME280;48704;50.534;6.442;2023-09-30T10:49:17;96613.78;;;18.32;81.44
62634;BME280;48704;50.534;6.442;2023-09-30T10:51:57;96602.47;;;18.26;77.28
62634;BME280;48704;50.534;6.442;2023-09-30T10:54:24;96610.09;;;18.15;77.63
62634;BME280;48704;50.534;6.442;2023-09-30T10:56:50;96605.81;;;18.79;76.33
62634;BME280;48704;50.534;6.442;2023-09-30T10:59:19;96616.47;;;19.40;68.71
62634;BME280;48704;50.534;6.442;2023-09-30T11:01:44;96619.88;;;17.82;72.58
62634;BME280;48704;50.534;6.442;2023-09-30T11:04:09;96618.09;;;18.76;69.74
62634;BME280;48704;50.534;6.442;2023-09-30T11:06:40;96614.38;;;19.18;66.19
62634;BME280;48704;50.534;6.442;2023-09-30T11:09:05;96615.22;;;19.85;65.30
62634;BME280;48704;50.534;6.442;2023-09-30T11:14:03;96608.50;;;20.05;66.23
62634;BME280;48704;50.534;6.442;2023-09-30T11:16:40;96599.22;;;20.16;63.81
62634;BME280;48704;50.534;6.442;2023-09-30T11:19:06;96601.03;;;20.13;62.21
62634;BME280;48704;50.534;6.442;2023-09-30T11:21:33;96596.78;;;20.64;63.70
62634;BME280;48704;50.534;6.442;2023-09-30T11:24:00;96600.94;;;21.10;61.99
62634;BME280;48704;50.534;6.442;2023-09-30T11:26:29;96592.50;;;21.46;57.99
62634;BME280;48704;50.534;6.442;2023-09-30T11:29:05;96590.97;;;20.98;58.95
62634;BME280;48704;50.534;6.442;2023-09-30T11:31:31;96586.25;;;20.59;60.28
62634;BME280;48704;50.534;6.442;2023-09-30T11:33:59;96582.06;;;21.18;59.52
62634;BME280;48704;50.534;6.442;2023-09-30T11:36:29;96584.22;;;21.48;58.51
62634;BME280;48704;50.534;6.442;2023-09-30T11:38:56;96581.34;;;20.65;58.83
62634;BME280;48704;50.534;6.442;2023-09-30T11:41:21;96583.47;;;20.37;61.66
62634;BME280;48704;50.534;6.442;2023-09-30T11:44:01;96580.91;;;18.83;62.21
62634;BME280;48704;50.534;6.442;2023-09-30T11:46:30;96581.50;;;19.15;64.79
62634;BME280;48704;50.534;6.442;2023-09-30T11:49:01;96588.38;;;18.86;63.91
62634;BME280;48704;50.534;6.442;2023-09-30T11:51:28;96578.94;;;19.17;62.58
62634;BME280;48704;50.534;6.442;2023-09-30T11:53:54;96582.06;;;19.52;63.46
62634;BME280;48704;50.534;6.442;2023-09-30T11:56:20;96578.09;;;18.83;67.36
62634;BME280;48704;50.534;6.442;2023-09-30T11:58:48;96577.50;;;18.62;68.90
62634;BME280;48704;50.534;6.442;2023-09-30T12:01:16;96584.25;;;20.43;64.46
62634;BME280;48704;50.534;6.442;2023-09-30T12:03:41;96585.34;;;20.87;62.55
62634;BME280;48704;50.534;6.442;2023-09-30T12:06:07;96580.47;;;19.12;67.09
62634;BME280;48704;50.534;6.442;2023-09-30T12:08:33;96584.81;;;19.02;67.07
62634;BME280;48704;50.534;6.442;2023-09-30T12:10:59;96572.47;;;18.94;67.64
62634;BME280;48704;50.534;6.442;2023-09-30T12:13:25;96576.38;;;19.24;67.39
62634;BME280;48704;50.534;6.442;2023-09-30T12:15:50;96567.81;;;20.25;65.98
62634;BME280;48704;50.534;6.442;2023-09-30T12:18:18;96555.78;;;18.96;68.70
62634;BME280;48704;50.534;6.442;2023-09-30T12:20:49;96557.63;;;18.34;67.39
62634;BME280;48704;50.534;6.442;2023-09-30T12:23:14;96551.47;;;19.73;65.98
62634;BME280;48704;50.534;6.442;2023-09-30T12:25:40;96556.41;;;20.58;64.19
62634;BME280;48704;50.534;6.442;2023-09-30T12:28:05;96550.31;;;20.32;62.42
62634;BME280;48704;50.534;6.442;2023-09-30T12:30:31;96548.28;;;20.21;58.66
62634;BME280;48704;50.534;6.442;2023-09-30T12:32:57;96557.94;;;20.59;57.20
62634;BME280;48704;50.534;6.442;2023-09-30T12:35:22;96548.25;;;21.31;55.70
62634;BME280;48704;50.534;6.442;2023-09-30T12:37:48;96539.94;;;21.03;54.08
62634;BME280;48704;50.534;6.442;2023-09-30T12:40:13;96539.66;;;22.27;53.24
62634;BME280;48704;50.534;6.442;2023-09-30T12:42:42;96531.38;;;22.05;54.98
62634;BME280;48704;50.534;6.442;2023-09-30T12:45:08;96531.53;;;21.28;55.62
62634;BME280;48704;50.534;6.442;2023-09-30T12:47:34;96524.88;;;22.10;54.68
62634;BME280;48704;50.534;6.442;2023-09-30T12:49:59;96532.22;;;20.98;55.65
62634;BME280;48704;50.534;6.442;2023-09-30T12:52:24;96533.13;;;20.13;61.03
62634;BME280;48704;50.534;6.442;2023-09-30T12:54:50;96527.81;;;19.09;64.10
62634;BME280;48704;50.534;6.442;2023-09-30T12:57:16;96533.28;;;20.43;60.62
62634;BME280;48704;50.534;6.442;2023-09-30T12:59:43;96523.19;;;18.89;61.66
62634;BME280;48704;50.534;6.442;2023-09-30T13:02:11;96526.78;;;19.68;62.17
62634;BME280;48704;50.534;6.442;2023-09-30T13:04:37;96535.44;;;20.78;58.36
62634;BME280;48704;50.534;6.442;2023-09-30T13:07:08;96527.44;;;21.18;57.49
62634;BME280;48704;50.534;6.442;2023-09-30T13:09:33;96522.63;;;20.72;57.98
62634;BME280;48704;50.534;6.442;2023-09-30T13:11:58;96531.03;;;21.54;54.66